This London Heathrow Airport weather forecast is generated by the Met Office Weather Widget

AirNav RadarBox - Metar Weather
  London Heathrow Metar Weather
 

METAR = EGLL 231550Z 10007KT 9999 BKN025 15/06 Q1024

STATION........ EGLL
OBSERVED....... Sat May 23, 16:50 BST
NOW............ Sat May 23, 17:20 BST
AGE............ 30 min ago
WIND........... E at 8 mph
VISIBILITY..... 16 miles
CLOUDS......... mostly cloudy
TEMP........... 59°F (15°C)
DEWPT.......... 43°F (6°C)
HUMIDITY....... 55%
BAROMETER...... 1024 hPa (30.24 in Hg)

Sat May 23 2015, sunrise time : 04:03
Sat May 23 2015, sunset time : 19:53